sensor_id;sensor_type;location;lat;lon;timestamp;P1;durP1;ratioP1;P2;durP2;ratioP2
17361;SDS011;8798;51.938;4.348;2024-01-10T00:00:06;3.17;;;1.43;;
17361;SDS011;8798;51.938;4.348;2024-01-10T00:02:35;2.50;;;1.40;;
17361;SDS011;8798;51.938;4.348;2024-01-10T00:05:03;1.67;;;1.20;;
17361;SDS011;8798;51.938;4.348;2024-01-10T00:07:32;3.13;;;1.57;;
17361;SDS011;8798;51.938;4.348;2024-01-10T00:10:03;1.90;;;1.30;;
17361;SDS011;8798;51.938;4.348;2024-01-10T00:12:31;2.60;;;1.27;;
17361;SDS011;8798;51.938;4.348;2024-01-10T00:15:04;1.63;;;1.10;;
17361;SDS011;8798;51.938;4.348;2024-01-10T00:17:33;2.90;;;1.50;;
17361;SDS011;8798;51.938;4.348;2024-01-10T00:20:01;2.47;;;1.43;;
17361;SDS011;8798;51.938;4.348;2024-01-10T00:22:29;4.27;;;1.43;;
17361;SDS011;8798;51.938;4.348;2024-01-10T00:24:57;1.80;;;1.17;;
17361;SDS011;8798;51.938;4.348;2024-01-10T00:27:25;2.43;;;1.20;;
17361;SDS011;8798;51.938;4.348;2024-01-10T00:29:53;4.40;;;1.30;;
17361;SDS011;8798;51.938;4.348;2024-01-10T00:32:24;2.77;;;1.73;;
17361;SDS011;8798;51.938;4.348;2024-01-10T00:34:52;3.50;;;1.67;;
17361;SDS011;8798;51.938;4.348;2024-01-10T00:37:21;2.67;;;1.60;;
17361;SDS011;8798;51.938;4.348;2024-01-10T00:39:49;2.33;;;1.30;;
17361;SDS011;8798;51.938;4.348;2024-01-10T00:42:17;2.93;;;1.20;;
17361;SDS011;8798;51.938;4.348;2024-01-10T00:44:45;3.20;;;1.30;;
17361;SDS011;8798;51.938;4.348;2024-01-10T00:47:14;3.27;;;1.70;;
17361;SDS011;8798;51.938;4.348;2024-01-10T00:49:43;4.33;;;1.63;;
17361;SDS011;8798;51.938;4.348;2024-01-10T00:52:11;2.93;;;1.17;;
17361;SDS011;8798;51.938;4.348;2024-01-10T00:54:39;2.27;;;1.33;;
17361;SDS011;8798;51.938;4.348;2024-01-10T00:57:07;1.93;;;1.37;;
17361;SDS011;8798;51.938;4.348;2024-01-10T00:59:35;2.37;;;1.30;;
17361;SDS011;8798;51.938;4.348;2024-01-10T01:02:03;5.20;;;1.70;;
17361;SDS011;8798;51.938;4.348;2024-01-10T01:04:31;3.03;;;1.53;;
17361;SDS011;8798;51.938;4.348;2024-01-10T01:07:01;3.37;;;1.70;;
17361;SDS011;8798;51.938;4.348;2024-01-10T01:09:29;1.80;;;1.40;;
17361;SDS011;8798;51.938;4.348;2024-01-10T01:11:57;2.83;;;1.90;;
17361;SDS011;8798;51.938;4.348;2024-01-10T01:14:25;2.27;;;1.27;;
17361;SDS011;8798;51.938;4.348;2024-01-10T01:16:53;2.13;;;1.27;;
17361;SDS011;8798;51.938;4.348;2024-01-10T01:19:21;1.93;;;1.30;;
17361;SDS011;8798;51.938;4.348;2024-01-10T01:21:49;4.27;;;1.60;;
17361;SDS011;8798;51.938;4.348;2024-01-10T01:24:19;2.97;;;1.47;;
17361;SDS011;8798;51.938;4.348;2024-01-10T01:26:47;3.30;;;1.50;;
17361;SDS011;8798;51.938;4.348;2024-01-10T01:29:15;2.40;;;1.40;;
17361;SDS011;8798;51.938;4.348;2024-01-10T01:31:44;2.83;;;1.50;;
17361;SDS011;8798;51.938;4.348;2024-01-10T01:34:12;3.73;;;1.57;;
17361;SDS011;8798;51.938;4.348;2024-01-10T01:36:41;2.97;;;1.50;;
17361;SDS011;8798;51.938;4.348;2024-01-10T01:39:09;3.10;;;1.63;;
17361;SDS011;8798;51.938;4.348;2024-01-10T01:41:41;3.33;;;1.57;;
17361;SDS011;8798;51.938;4.348;2024-01-10T01:44:08;2.33;;;1.37;;
17361;SDS011;8798;51.938;4.348;2024-01-10T01:46:38;3.80;;;1.73;;
17361;SDS011;8798;51.938;4.348;2024-01-10T01:49:07;2.13;;;1.50;;
17361;SDS011;8798;51.938;4.348;2024-01-10T01:51:35;2.40;;;1.60;;
17361;SDS011;8798;51.938;4.348;2024-01-10T01:54:06;3.73;;;1.70;;
17361;SDS011;8798;51.938;4.348;2024-01-10T01:56:35;4.10;;;1.50;;
17361;SDS011;8798;51.938;4.348;2024-01-10T01:59:05;2.97;;;1.70;;
17361;SDS011;8798;51.938;4.348;2024-01-10T02:01:33;4.27;;;1.87;;
17361;SDS011;8798;51.938;4.348;2024-01-10T02:04:01;3.10;;;1.80;;
17361;SDS011;8798;51.938;4.348;2024-01-10T02:06:30;3.73;;;2.00;;
17361;SDS011;8798;51.938;4.348;2024-01-10T02:08:58;3.20;;;1.63;;
17361;SDS011;8798;51.938;4.348;2024-01-10T02:11:26;4.23;;;1.73;;
17361;SDS011;8798;51.938;4.348;2024-01-10T02:13:54;2.87;;;1.83;;
17361;SDS011;8798;51.938;4.348;2024-01-10T02:16:24;6.47;;;2.00;;
17361;SDS011;8798;51.938;4.348;2024-01-10T02:18:52;4.07;;;1.70;;
17361;SDS011;8798;51.938;4.348;2024-01-10T02:21:20;3.27;;;1.80;;
17361;SDS011;8798;51.938;4.348;2024-01-10T02:23:49;1.97;;;1.30;;
17361;SDS011;8798;51.938;4.348;2024-01-10T02:26:18;4.70;;;2.10;;
17361;SDS011;8798;51.938;4.348;2024-01-10T02:28:46;2.53;;;1.73;;
17361;SDS011;8798;51.938;4.348;2024-01-10T02:31:14;4.20;;;1.73;;
17361;SDS011;8798;51.938;4.348;2024-01-10T02:33:42;2.93;;;1.70;;
17361;SDS011;8798;51.938;4.348;2024-01-10T02:36:10;4.07;;;1.90;;
17361;SDS011;8798;51.938;4.348;2024-01-10T02:38:38;3.83;;;1.80;;
17361;SDS011;8798;51.938;4.348;2024-01-10T02:41:06;3.43;;;1.70;;
17361;SDS011;8798;51.938;4.348;2024-01-10T02:43:35;2.60;;;1.50;;
17361;SDS011;8798;51.938;4.348;2024-01-10T02:46:03;3.17;;;1.47;;
17361;SDS011;8798;51.938;4.348;2024-01-10T02:48:32;2.93;;;1.57;;
17361;SDS011;8798;51.938;4.348;2024-01-10T02:51:00;2.27;;;1.40;;
17361;SDS011;8798;51.938;4.348;2024-01-10T02:53:28;3.10;;;1.77;;
17361;SDS011;8798;51.938;4.348;2024-01-10T02:55:56;2.70;;;1.37;;
17361;SDS011;8798;51.938;4.348;2024-01-10T02:58:24;3.40;;;1.97;;
17361;SDS011;8798;51.938;4.348;2024-01-10T03:00:54;3.87;;;2.00;;
17361;SDS011;8798;51.938;4.348;2024-01-10T03:03:23;3.07;;;1.80;;
17361;SDS011;8798;51.938;4.348;2024-01-10T03:05:51;2.37;;;1.50;;
17361;SDS011;8798;51.938;4.348;2024-01-10T03:08:19;5.47;;;1.97;;
17361;SDS011;8798;51.938;4.348;2024-01-10T03:10:47;2.67;;;1.70;;
17361;SDS011;8798;51.938;4.348;2024-01-10T03:13:15;4.00;;;1.67;;
17361;SDS011;8798;51.938;4.348;2024-01-10T03:15:43;2.53;;;1.67;;
17361;SDS011;8798;51.938;4.348;2024-01-10T03:18:14;3.53;;;2.00;;
17361;SDS011;8798;51.938;4.348;2024-01-10T03:20:42;3.87;;;1.50;;
17361;SDS011;8798;51.938;4.348;2024-01-10T03:23:10;2.77;;;1.70;;
17361;SDS011;8798;51.938;4.348;2024-01-10T03:25:38;2.53;;;1.57;;
17361;SDS011;8798;51.938;4.348;2024-01-10T03:28:06;5.23;;;2.10;;
17361;SDS011;8798;51.938;4.348;2024-01-10T03:30:34;3.93;;;1.87;;
17361;SDS011;8798;51.938;4.348;2024-01-10T03:33:02;3.87;;;2.03;;
17361;SDS011;8798;51.938;4.348;2024-01-10T03:35:33;3.07;;;1.73;;
17361;SDS011;8798;51.938;4.348;2024-01-10T03:38:01;3.53;;;1.67;;
17361;SDS011;8798;51.938;4.348;2024-01-10T03:40:29;5.30;;;2.20;;
17361;SDS011;8798;51.938;4.348;2024-01-10T03:42:57;3.00;;;1.77;;
17361;SDS011;8798;51.938;4.348;2024-01-10T03:45:25;4.80;;;2.20;;
17361;SDS011;8798;51.938;4.348;2024-01-10T03:47:54;2.97;;;1.83;;
17361;SDS011;8798;51.938;4.348;2024-01-10T03:50:22;2.80;;;1.90;;
17361;SDS011;8798;51.938;4.348;2024-01-10T03:52:51;4.27;;;2.20;;
17361;SDS011;8798;51.938;4.348;2024-01-10T03:55:19;3.73;;;1.93;;
17361;SDS011;8798;51.938;4.348;2024-01-10T03:57:47;2.80;;;1.97;;
17361;SDS011;8798;51.938;4.348;2024-01-10T04:00:16;3.87;;;2.17;;
17361;SDS011;8798;51.938;4.348;2024-01-10T04:02:44;4.17;;;2.23;;
17361;SDS011;8798;51.938;4.348;2024-01-10T04:05:15;2.63;;;1.73;;
17361;SDS011;8798;51.938;4.348;2024-01-10T04:07:43;2.80;;;1.70;;
17361;SDS011;8798;51.938;4.348;2024-01-10T04:10:12;4.93;;;2.30;;
17361;SDS011;8798;51.938;4.348;2024-01-10T04:12:41;8.07;;;2.27;;
17361;SDS011;8798;51.938;4.348;2024-01-10T04:15:10;6.23;;;2.50;;
17361;SDS011;8798;51.938;4.348;2024-01-10T04:17:38;5.00;;;2.20;;
17361;SDS011;8798;51.938;4.348;2024-01-10T04:20:07;5.33;;;2.70;;
17361;SDS011;8798;51.938;4.348;2024-01-10T04:22:37;3.43;;;2.07;;
17361;SDS011;8798;51.938;4.348;2024-01-10T04:25:05;6.03;;;2.83;;
17361;SDS011;8798;51.938;4.348;2024-01-10T04:27:36;4.07;;;2.20;;
17361;SDS011;8798;51.938;4.348;2024-01-10T04:30:05;5.07;;;2.60;;
17361;SDS011;8798;51.938;4.348;2024-01-10T04:32:34;6.37;;;2.87;;
17361;SDS011;8798;51.938;4.348;2024-01-10T04:35:03;4.33;;;2.37;;
17361;SDS011;8798;51.938;4.348;2024-01-10T04:37:31;4.27;;;2.50;;
17361;SDS011;8798;51.938;4.348;2024-01-10T04:39:59;5.60;;;2.80;;
17361;SDS011;8798;51.938;4.348;2024-01-10T04:42:27;6.03;;;2.50;;
17361;SDS011;8798;51.938;4.348;2024-01-10T04:44:56;8.83;;;2.50;;
17361;SDS011;8798;51.938;4.348;2024-01-10T04:47:25;4.87;;;2.20;;
17361;SDS011;8798;51.938;4.348;2024-01-10T04:49:53;5.33;;;2.73;;
17361;SDS011;8798;51.938;4.348;2024-01-10T04:52:21;5.03;;;2.47;;
17361;SDS011;8798;51.938;4.348;2024-01-10T04:54:49;4.00;;;2.17;;
17361;SDS011;8798;51.938;4.348;2024-01-10T04:57:17;4.83;;;2.90;;
17361;SDS011;8798;51.938;4.348;2024-01-10T04:59:45;4.27;;;2.77;;
17361;SDS011;8798;51.938;4.348;2024-01-10T05:02:18;4.70;;;2.33;;
17361;SDS011;8798;51.938;4.348;2024-01-10T05:04:46;4.30;;;2.40;;
17361;SDS011;8798;51.938;4.348;2024-01-10T05:07:14;4.10;;;2.80;;
17361;SDS011;8798;51.938;4.348;2024-01-10T05:09:44;6.03;;;2.70;;
17361;SDS011;8798;51.938;4.348;2024-01-10T05:12:12;7.67;;;2.77;;
17361;SDS011;8798;51.938;4.348;2024-01-10T05:14:40;5.07;;;2.63;;
17361;SDS011;8798;51.938;4.348;2024-01-10T05:17:08;5.10;;;2.77;;
17361;SDS011;8798;51.938;4.348;2024-01-10T05:19:37;3.90;;;2.40;;
17361;SDS011;8798;51.938;4.348;2024-01-10T05:22:06;7.73;;;2.63;;
17361;SDS011;8798;51.938;4.348;2024-01-10T05:24:34;5.37;;;2.50;;
17361;SDS011;8798;51.938;4.348;2024-01-10T05:27:03;4.37;;;2.80;;
17361;SDS011;8798;51.938;4.348;2024-01-10T05:29:32;4.13;;;2.43;;
17361;SDS011;8798;51.938;4.348;2024-01-10T05:32:00;6.67;;;2.83;;
17361;SDS011;8798;51.938;4.348;2024-01-10T05:34:28;5.97;;;2.87;;
17361;SDS011;8798;51.938;4.348;2024-01-10T05:36:58;4.67;;;2.67;;
17361;SDS011;8798;51.938;4.348;2024-01-10T05:39:26;7.13;;;2.87;;
17361;SDS011;8798;51.938;4.348;2024-01-10T05:41:56;6.07;;;2.70;;
17361;SDS011;8798;51.938;4.348;2024-01-10T05:44:24;6.00;;;2.80;;
17361;SDS011;8798;51.938;4.348;2024-01-10T05:46:52;3.57;;;2.43;;
17361;SDS011;8798;51.938;4.348;2024-01-10T05:49:20;4.50;;;2.47;;
17361;SDS011;8798;51.938;4.348;2024-01-10T05:51:48;5.80;;;2.83;;
17361;SDS011;8798;51.938;4.348;2024-01-10T05:54:17;5.97;;;3.20;;
17361;SDS011;8798;51.938;4.348;2024-01-10T05:56:45;6.50;;;3.37;;
17361;SDS011;8798;51.938;4.348;2024-01-10T05:59:14;5.07;;;2.70;;
17361;SDS011;8798;51.938;4.348;2024-01-10T06:01:43;4.53;;;2.67;;
17361;SDS011;8798;51.938;4.348;2024-01-10T06:04:11;5.17;;;2.93;;
17361;SDS011;8798;51.938;4.348;2024-01-10T06:06:39;3.60;;;2.63;;
17361;SDS011;8798;51.938;4.348;2024-01-10T06:09:07;6.87;;;3.10;;
17361;SDS011;8798;51.938;4.348;2024-01-10T06:11:41;4.73;;;2.77;;
17361;SDS011;8798;51.938;4.348;2024-01-10T06:14:09;5.33;;;3.03;;
17361;SDS011;8798;51.938;4.348;2024-01-10T06:16:38;6.10;;;2.80;;
17361;SDS011;8798;51.938;4.348;2024-01-10T06:19:06;5.83;;;3.00;;
17361;SDS011;8798;51.938;4.348;2024-01-10T06:21:34;5.93;;;3.00;;
17361;SDS011;8798;51.938;4.348;2024-01-10T06:24:02;7.10;;;2.80;;
17361;SDS011;8798;51.938;4.348;2024-01-10T06:26:30;5.10;;;2.77;;
17361;SDS011;8798;51.938;4.348;2024-01-10T06:28:59;6.57;;;3.17;;
17361;SDS011;8798;51.938;4.348;2024-01-10T06:31:27;6.47;;;2.70;;
17361;SDS011;8798;51.938;4.348;2024-01-10T06:33:56;4.67;;;3.00;;
17361;SDS011;8798;51.938;4.348;2024-01-10T06:36:24;6.57;;;2.93;;
17361;SDS011;8798;51.938;4.348;2024-01-10T06:38:52;6.90;;;3.10;;
17361;SDS011;8798;51.938;4.348;2024-01-10T06:41:20;5.67;;;2.30;;
17361;SDS011;8798;51.938;4.348;2024-01-10T06:43:50;5.90;;;2.77;;
17361;SDS011;8798;51.938;4.348;2024-01-10T06:46:20;5.23;;;2.70;;
17361;SDS011;8798;51.938;4.348;2024-01-10T06:48:48;5.37;;;3.10;;
17361;SDS011;8798;51.938;4.348;2024-01-10T06:51:16;5.97;;;2.77;;
17361;SDS011;8798;51.938;4.348;2024-01-10T06:53:44;7.10;;;2.80;;
17361;SDS011;8798;51.938;4.348;2024-01-10T06:56:12;6.23;;;3.00;;
17361;SDS011;8798;51.938;4.348;2024-01-10T06:58:40;3.87;;;2.47;;
17361;SDS011;8798;51.938;4.348;2024-01-10T07:01:11;4.57;;;2.63;;
17361;SDS011;8798;51.938;4.348;2024-01-10T07:03:42;6.13;;;2.83;;
17361;SDS011;8798;51.938;4.348;2024-01-10T07:06:11;4.93;;;2.77;;
17361;SDS011;8798;51.938;4.348;2024-01-10T07:08:42;4.30;;;2.80;;
17361;SDS011;8798;51.938;4.348;2024-01-10T07:11:11;10.33;;;2.70;;
17361;SDS011;8798;51.938;4.348;2024-01-10T07:13:40;4.83;;;2.93;;
17361;SDS011;8798;51.938;4.348;2024-01-10T07:16:08;5.10;;;2.90;;
17361;SDS011;8798;51.938;4.348;2024-01-10T07:18:36;6.93;;;3.33;;
17361;SDS011;8798;51.938;4.348;2024-01-10T07:21:09;6.97;;;2.90;;
17361;SDS011;8798;51.938;4.348;2024-01-10T07:23:38;5.03;;;2.97;;
17361;SDS011;8798;51.938;4.348;2024-01-10T07:26:07;5.33;;;3.03;;
17361;SDS011;8798;51.938;4.348;2024-01-10T07:28:35;5.23;;;3.00;;
17361;SDS011;8798;51.938;4.348;2024-01-10T07:31:24;4.97;;;2.43;;
17361;SDS011;8798;51.938;4.348;2024-01-10T07:33:55;6.43;;;3.17;;
17361;SDS011;8798;51.938;4.348;2024-01-10T07:36:25;6.17;;;3.10;;
17361;SDS011;8798;51.938;4.348;2024-01-10T07:38:55;5.77;;;3.03;;
17361;SDS011;8798;51.938;4.348;2024-01-10T07:41:31;6.33;;;3.00;;
17361;SDS011;8798;51.938;4.348;2024-01-10T07:43:59;6.33;;;3.10;;
17361;SDS011;8798;51.938;4.348;2024-01-10T07:46:29;6.80;;;3.07;;
17361;SDS011;8798;51.938;4.348;2024-01-10T07:49:03;6.87;;;3.30;;
17361;SDS011;8798;51.938;4.348;2024-01-10T07:51:33;5.00;;;2.80;;
17361;SDS011;8798;51.938;4.348;2024-01-10T07:54:01;8.00;;;3.03;;
17361;SDS011;8798;51.938;4.348;2024-01-10T07:56:30;5.00;;;2.87;;
17361;SDS011;8798;51.938;4.348;2024-01-10T07:59:03;7.33;;;3.30;;
17361;SDS011;8798;51.938;4.348;2024-01-10T08:01:34;7.40;;;3.40;;
17361;SDS011;8798;51.938;4.348;2024-01-10T08:04:02;5.90;;;3.03;;
17361;SDS011;8798;51.938;4.348;2024-01-10T08:06:31;5.07;;;2.90;;
17361;SDS011;8798;51.938;4.348;2024-01-10T08:09:01;4.57;;;2.80;;
17361;SDS011;8798;51.938;4.348;2024-01-10T08:11:34;6.23;;;3.20;;
17361;SDS011;8798;51.938;4.348;2024-01-10T08:14:02;7.10;;;3.30;;
17361;SDS011;8798;51.938;4.348;2024-01-10T08:16:30;5.87;;;2.90;;
17361;SDS011;8798;51.938;4.348;2024-01-10T08:18:59;7.33;;;3.00;;
17361;SDS011;8798;51.938;4.348;2024-01-10T08:21:28;5.13;;;2.70;;
17361;SDS011;8798;51.938;4.348;2024-01-10T08:24:05;5.73;;;2.87;;
17361;SDS011;8798;51.938;4.348;2024-01-10T08:26:33;6.23;;;3.13;;
17361;SDS011;8798;51.938;4.348;2024-01-10T08:29:02;5.07;;;2.87;;
17361;SDS011;8798;51.938;4.348;2024-01-10T08:31:34;5.17;;;2.93;;
17361;SDS011;8798;51.938;4.348;2024-01-10T08:34:03;4.27;;;2.47;;
17361;SDS011;8798;51.938;4.348;2024-01-10T08:36:32;6.63;;;2.70;;
17361;SDS011;8798;51.938;4.348;2024-01-10T08:39:00;5.73;;;3.00;;
17361;SDS011;8798;51.938;4.348;2024-01-10T08:41:31;4.03;;;2.43;;
17361;SDS011;8798;51.938;4.348;2024-01-10T08:44:04;6.70;;;3.40;;
17361;SDS011;8798;51.938;4.348;2024-01-10T08:46:32;7.60;;;3.00;;
17361;SDS011;8798;51.938;4.348;2024-01-10T08:49:13;3.57;;;2.27;;
17361;SDS011;8798;51.938;4.348;2024-01-10T08:51:42;6.30;;;2.90;;
17361;SDS011;8798;51.938;4.348;2024-01-10T08:54:18;4.33;;;2.43;;
17361;SDS011;8798;51.938;4.348;2024-01-10T08:56:52;7.03;;;3.20;;
17361;SDS011;8798;51.938;4.348;2024-01-10T08:59:22;6.43;;;2.77;;
17361;SDS011;8798;51.938;4.348;2024-01-10T09:01:52;5.23;;;2.97;;
17361;SDS011;8798;51.938;4.348;2024-01-10T09:04:21;7.20;;;2.83;;
17361;SDS011;8798;51.938;4.348;2024-01-10T09:06:50;8.00;;;3.07;;
17361;SDS011;8798;51.938;4.348;2024-01-10T09:09:22;5.20;;;3.07;;
17361;SDS011;8798;51.938;4.348;2024-01-10T09:11:52;5.30;;;2.73;;
17361;SDS011;8798;51.938;4.348;2024-01-10T09:14:22;7.43;;;3.43;;
17361;SDS011;8798;51.938;4.348;2024-01-10T09:16:50;5.70;;;2.63;;
17361;SDS011;8798;51.938;4.348;2024-01-10T09:19:21;4.87;;;2.97;;
17361;SDS011;8798;51.938;4.348;2024-01-10T09:21:53;5.03;;;2.90;;
17361;SDS011;8798;51.938;4.348;2024-01-10T09:24:24;5.13;;;2.43;;
17361;SDS011;8798;51.938;4.348;2024-01-10T09:26:57;6.93;;;2.70;;
17361;SDS011;8798;51.938;4.348;2024-01-10T09:29:30;9.70;;;3.10;;
17361;SDS011;8798;51.938;4.348;2024-01-10T09:31:58;5.07;;;2.67;;
17361;SDS011;8798;51.938;4.348;2024-01-10T09:34:31;5.47;;;2.80;;
17361;SDS011;8798;51.938;4.348;2024-01-10T09:36:59;5.10;;;2.80;;
17361;SDS011;8798;51.938;4.348;2024-01-10T09:39:29;6.00;;;2.30;;
17361;SDS011;8798;51.938;4.348;2024-01-10T09:41:59;5.93;;;2.57;;
17361;SDS011;8798;51.938;4.348;2024-01-10T09:44:33;9.17;;;3.53;;
17361;SDS011;8798;51.938;4.348;2024-01-10T09:47:05;4.67;;;2.30;;
17361;SDS011;8798;51.938;4.348;2024-01-10T09:49:33;5.90;;;3.03;;
17361;SDS011;8798;51.938;4.348;2024-01-10T09:52:04;5.97;;;2.97;;
17361;SDS011;8798;51.938;4.348;2024-01-10T09:54:41;4.20;;;2.53;;
17361;SDS011;8798;51.938;4.348;2024-01-10T09:57:14;7.47;;;2.97;;
17361;SDS011;8798;51.938;4.348;2024-01-10T09:59:42;4.00;;;2.40;;
17361;SDS011;8798;51.938;4.348;2024-01-10T10:02:13;4.47;;;2.53;;
17361;SDS011;8798;51.938;4.348;2024-01-10T10:04:45;6.50;;;2.57;;
17361;SDS011;8798;51.938;4.348;2024-01-10T10:07:23;6.40;;;2.90;;
17361;SDS011;8798;51.938;4.348;2024-01-10T10:09:52;6.67;;;3.30;;
17361;SDS011;8798;51.938;4.348;2024-01-10T10:12:24;6.93;;;3.07;;
17361;SDS011;8798;51.938;4.348;2024-01-10T10:15:10;6.50;;;2.77;;
17361;SDS011;8798;51.938;4.348;2024-01-10T10:17:39;5.27;;;2.93;;
17361;SDS011;8798;51.938;4.348;2024-01-10T10:20:14;5.80;;;3.00;;
17361;SDS011;8798;51.938;4.348;2024-01-10T10:22:57;5.87;;;2.53;;
17361;SDS011;8798;51.938;4.348;2024-01-10T10:25:27;6.23;;;3.03;;
17361;SDS011;8798;51.938;4.348;2024-01-10T10:27:59;7.20;;;2.83;;
17361;SDS011;8798;51.938;4.348;2024-01-10T10:30:30;7.93;;;3.13;;
17361;SDS011;8798;51.938;4.348;2024-01-10T10:32:58;6.70;;;2.67;;
17361;SDS011;8798;51.938;4.348;2024-01-10T10:35:27;5.93;;;3.33;;
17361;SDS011;8798;51.938;4.348;2024-01-10T10:38:07;5.30;;;3.00;;
17361;SDS011;8798;51.938;4.348;2024-01-10T10:40:36;6.40;;;3.23;;
17361;SDS011;8798;51.938;4.348;2024-01-10T10:43:08;5.20;;;2.90;;
17361;SDS011;8798;51.938;4.348;2024-01-10T10:45:41;6.60;;;3.03;;
17361;SDS011;8798;51.938;4.348;2024-01-10T10:48:14;7.70;;;3.10;;
17361;SDS011;8798;51.938;4.348;2024-01-10T10:50:47;6.47;;;3.27;;
17361;SDS011;8798;51.938;4.348;2024-01-10T10:53:22;6.40;;;3.10;;
17361;SDS011;8798;51.938;4.348;2024-01-10T10:55:55;5.47;;;2.60;;
17361;SDS011;8798;51.938;4.348;2024-01-10T10:58:26;6.03;;;3.30;;
17361;SDS011;8798;51.938;4.348;2024-01-10T11:00:54;6.90;;;3.17;;
17361;SDS011;8798;51.938;4.348;2024-01-10T11:03:24;6.03;;;2.90;;
17361;SDS011;8798;51.938;4.348;2024-01-10T11:05:55;7.60;;;3.27;;
17361;SDS011;8798;51.938;4.348;2024-01-10T11:08:26;5.87;;;2.87;;
17361;SDS011;8798;51.938;4.348;2024-01-10T11:10:56;7.30;;;3.23;;
17361;SDS011;8798;51.938;4.348;2024-01-10T11:13:27;7.83;;;3.23;;
17361;SDS011;8798;51.938;4.348;2024-01-10T11:19:14;8.90;;;3.50;;
17361;SDS011;8798;51.938;4.348;2024-01-10T11:22:04;7.30;;;3.80;;
17361;SDS011;8798;51.938;4.348;2024-01-10T11:24:46;7.43;;;3.73;;
17361;SDS011;8798;51.938;4.348;2024-01-10T11:27:14;9.37;;;3.80;;
17361;SDS011;8798;51.938;4.348;2024-01-10T11:29:45;8.50;;;3.50;;
17361;SDS011;8798;51.938;4.348;2024-01-10T11:32:14;8.30;;;3.07;;
17361;SDS011;8798;51.938;4.348;2024-01-10T11:34:55;7.73;;;3.47;;
17361;SDS011;8798;51.938;4.348;2024-01-10T11:37:27;7.50;;;3.37;;
17361;SDS011;8798;51.938;4.348;2024-01-10T11:42:40;8.30;;;3.63;;
17361;SDS011;8798;51.938;4.348;2024-01-10T11:45:11;8.00;;;3.70;;
17361;SDS011;8798;51.938;4.348;2024-01-10T11:48:03;7.00;;;3.40;;
17361;SDS011;8798;51.938;4.348;2024-01-10T11:50:34;9.10;;;4.07;;
17361;SDS011;8798;51.938;4.348;2024-01-10T11:53:03;6.17;;;3.20;;
17361;SDS011;8798;51.938;4.348;2024-01-10T11:55:46;8.77;;;3.77;;
17361;SDS011;8798;51.938;4.348;2024-01-10T11:58:15;7.50;;;3.57;;
17361;SDS011;8798;51.938;4.348;2024-01-10T12:00:45;7.57;;;3.63;;
17361;SDS011;8798;51.938;4.348;2024-01-10T12:03:18;6.73;;;3.63;;
17361;SDS011;8798;51.938;4.348;2024-01-10T12:05:49;6.80;;;3.60;;
17361;SDS011;8798;51.938;4.348;2024-01-10T12:08:18;8.63;;;3.57;;
17361;SDS011;8798;51.938;4.348;2024-01-10T12:10:46;12.17;;;4.20;;
17361;SDS011;8798;51.938;4.348;2024-01-10T12:13:14;9.37;;;4.10;;
17361;SDS011;8798;51.938;4.348;2024-01-10T12:15:42;6.83;;;3.33;;
17361;SDS011;8798;51.938;4.348;2024-01-10T12:18:12;8.70;;;3.77;;
17361;SDS011;8798;51.938;4.348;2024-01-10T12:20:40;8.33;;;3.60;;
17361;SDS011;8798;51.938;4.348;2024-01-10T12:23:10;5.27;;;3.30;;
17361;SDS011;8798;51.938;4.348;2024-01-10T12:25:38;8.27;;;3.40;;
17361;SDS011;8798;51.938;4.348;2024-01-10T12:28:06;9.43;;;4.13;;
17361;SDS011;8798;51.938;4.348;2024-01-10T12:30:34;7.00;;;3.57;;
17361;SDS011;8798;51.938;4.348;2024-01-10T12:33:03;8.33;;;4.00;;
17361;SDS011;8798;51.938;4.348;2024-01-10T12:35:33;6.90;;;3.63;;
17361;SDS011;8798;51.938;4.348;2024-01-10T12:38:01;6.33;;;3.13;;
17361;SDS011;8798;51.938;4.348;2024-01-10T12:40:29;8.80;;;3.77;;
17361;SDS011;8798;51.938;4.348;2024-01-10T12:43:02;8.60;;;3.47;;
17361;SDS011;8798;51.938;4.348;2024-01-10T12:45:31;8.33;;;4.00;;
17361;SDS011;8798;51.938;4.348;2024-01-10T12:47:59;7.47;;;3.63;;
17361;SDS011;8798;51.938;4.348;2024-01-10T12:50:29;8.90;;;3.53;;
17361;SDS011;8798;51.938;4.348;2024-01-10T12:52:58;6.67;;;3.50;;
17361;SDS011;8798;51.938;4.348;2024-01-10T12:55:27;6.67;;;3.40;;
17361;SDS011;8798;51.938;4.348;2024-01-10T12:57:58;7.30;;;3.70;;
17361;SDS011;8798;51.938;4.348;2024-01-10T13:00:34;6.40;;;3.50;;
17361;SDS011;8798;51.938;4.348;2024-01-10T13:03:03;6.33;;;3.23;;
17361;SDS011;8798;51.938;4.348;2024-01-10T13:05:35;7.73;;;3.20;;
17361;SDS011;8798;51.938;4.348;2024-01-10T13:08:05;7.80;;;3.37;;
17361;SDS011;8798;51.938;4.348;2024-01-10T13:10:37;10.40;;;3.73;;
17361;SDS011;8798;51.938;4.348;2024-01-10T13:13:15;9.20;;;3.77;;
17361;SDS011;8798;51.938;4.348;2024-01-10T13:15:44;6.73;;;3.43;;
17361;SDS011;8798;51.938;4.348;2024-01-10T13:18:13;9.80;;;4.07;;
17361;SDS011;8798;51.938;4.348;2024-01-10T13:20:43;8.13;;;3.80;;
17361;SDS011;8798;51.938;4.348;2024-01-10T13:23:18;8.00;;;3.37;;
17361;SDS011;8798;51.938;4.348;2024-01-10T13:25:51;6.63;;;3.43;;
17361;SDS011;8798;51.938;4.348;2024-01-10T13:28:20;10.90;;;3.87;;
17361;SDS011;8798;51.938;4.348;2024-01-10T13:30:50;10.17;;;3.17;;
17361;SDS011;8798;51.938;4.348;2024-01-10T13:33:18;7.20;;;3.87;;
17361;SDS011;8798;51.938;4.348;2024-01-10T13:35:53;8.20;;;3.50;;
17361;SDS011;8798;51.938;4.348;2024-01-10T13:38:26;7.23;;;3.60;;
17361;SDS011;8798;51.938;4.348;2024-01-10T13:40:55;9.87;;;4.17;;
17361;SDS011;8798;51.938;4.348;2024-01-10T13:43:24;7.50;;;3.50;;
17361;SDS011;8798;51.938;4.348;2024-01-10T13:45:53;8.20;;;3.53;;
17361;SDS011;8798;51.938;4.348;2024-01-10T13:48:22;8.20;;;3.90;;
17361;SDS011;8798;51.938;4.348;2024-01-10T13:50:52;10.67;;;4.07;;
17361;SDS011;8798;51.938;4.348;2024-01-10T13:53:21;10.27;;;3.93;;
17361;SDS011;8798;51.938;4.348;2024-01-10T13:55:56;7.47;;;4.00;;
17361;SDS011;8798;51.938;4.348;2024-01-10T13:58:26;11.17;;;3.80;;
17361;SDS011;8798;51.938;4.348;2024-01-10T14:00:54;9.63;;;4.10;;
17361;SDS011;8798;51.938;4.348;2024-01-10T14:03:23;8.50;;;4.10;;
17361;SDS011;8798;51.938;4.348;2024-01-10T14:05:58;9.03;;;3.40;;
17361;SDS011;8798;51.938;4.348;2024-01-10T14:08:29;5.73;;;3.20;;
17361;SDS011;8798;51.938;4.348;2024-01-10T14:10:58;8.30;;;4.33;;
17361;SDS011;8798;51.938;4.348;2024-01-10T14:13:30;7.17;;;3.43;;
17361;SDS011;8798;51.938;4.348;2024-01-10T14:16:04;8.23;;;3.83;;
17361;SDS011;8798;51.938;4.348;2024-01-10T14:18:32;10.77;;;4.20;;
17361;SDS011;8798;51.938;4.348;2024-01-10T14:21:00;8.97;;;4.40;;
17361;SDS011;8798;51.938;4.348;2024-01-10T14:23:36;7.60;;;3.57;;
17361;SDS011;8798;51.938;4.348;2024-01-10T14:26:05;9.63;;;4.10;;
17361;SDS011;8798;51.938;4.348;2024-01-10T14:28:34;7.00;;;3.67;;
17361;SDS011;8798;51.938;4.348;2024-01-10T14:31:02;9.33;;;3.90;;
17361;SDS011;8798;51.938;4.348;2024-01-10T14:33:47;8.53;;;3.60;;
17361;SDS011;8798;51.938;4.348;2024-01-10T14:36:21;6.50;;;3.80;;
17361;SDS011;8798;51.938;4.348;2024-01-10T14:38:56;7.37;;;3.90;;
17361;SDS011;8798;51.938;4.348;2024-01-10T14:41:33;9.37;;;3.63;;
17361;SDS011;8798;51.938;4.348;2024-01-10T14:44:01;8.20;;;4.27;;
17361;SDS011;8798;51.938;4.348;2024-01-10T14:46:39;9.03;;;3.80;;
17361;SDS011;8798;51.938;4.348;2024-01-10T14:49:25;9.30;;;3.73;;
17361;SDS011;8798;51.938;4.348;2024-01-10T14:51:56;8.33;;;4.30;;
17361;SDS011;8798;51.938;4.348;2024-01-10T14:54:28;8.53;;;3.83;;
17361;SDS011;8798;51.938;4.348;2024-01-10T14:57:04;8.20;;;4.10;;
17361;SDS011;8798;51.938;4.348;2024-01-10T14:59:34;11.43;;;3.53;;
17361;SDS011;8798;51.938;4.348;2024-01-10T15:02:12;6.33;;;3.53;;
17361;SDS011;8798;51.938;4.348;2024-01-10T15:04:41;10.33;;;4.43;;
17361;SDS011;8798;51.938;4.348;2024-01-10T15:07:12;36.60;;;10.90;;
17361;SDS011;8798;51.938;4.348;2024-01-10T15:09:44;10.53;;;4.80;;
17361;SDS011;8798;51.938;4.348;2024-01-10T15:12:23;16.00;;;7.70;;
17361;SDS011;8798;51.938;4.348;2024-01-10T15:14:54;15.43;;;5.97;;
17361;SDS011;8798;51.938;4.348;2024-01-10T15:17:34;11.20;;;5.03;;
17361;SDS011;8798;51.938;4.348;2024-01-10T15:20:02;8.30;;;4.20;;
17361;SDS011;8798;51.938;4.348;2024-01-10T15:22:30;10.57;;;5.03;;